Date,TemperatureHighF,TemperatureAvgF,TemperatureLowF,DewpointHighF,DewpointAvgF,DewpointLowF,HumidityHigh,HumidityAvg,HumidityLow,PressureMaxIn,PressureMinIn,WindSpeedMaxMPH,WindSpeedAvgMPH,GustSpeedMaxMPH,PrecipitationSumIn
2013-1-1,81.9,71.6,59.9,65.1,61.9,58.2,98,74,56,30.06,29.92,21,3,21,0.00
2013-1-2,86.2,71.5,58.8,73.8,64.6,58.3,99,82,51,29.96,29.85,12,2,12,0.00
2013-1-3,88.7,73.8,64.4,75.5,68.1,64.1,99,84,55,30.00,29.88,11,2,11,0.00
2013-1-4,87.3,71.7,64.0,73.4,68.7,63.8,99,91,60,30.11,29.97,14,3,14,0.00
2013-1-5,80.6,70.5,65.5,74.0,68.6,65.2,99,94,74,30.12,30.02,11,3,11,0.01
2013-1-6,87.8,73.3,63.9,75.6,69.4,63.6,99,89,62,30.06,29.92,14,3,14,0.00
2013-1-7,79.5,72.2,66.7,72.8,70.5,66.4,99,95,79,30.04,29.94,16,4,16,0.15
2013-1-8,82.4,74.6,69.8,77.4,72.6,69.5,99,94,76,30.08,29.95,13,4,13,0.46
2013-1-9,84.2,77.9,73.0,75.1,73.6,72.0,99,88,72,30.15,30.03,17,6,17,0.09
2013-1-10,81.9,77.4,73.8,72.4,68.8,64.0,86,76,58,30.17,30.06,23,8,23,0.00
2013-1-11,80.2,75.4,72.1,73.4,70.1,66.7,96,84,71,30.14,30.03,19,6,19,0.05
2013-1-12,82.8,75.5,69.6,70.1,67.8,66.0,90,78,65,30.06,29.96,15,5,15,0.00
2013-1-13,84.6,75.8,71.6,71.2,67.4,63.2,86,76,63,30.00,29.94,15,5,15,0.00
2013-1-14,83.5,74.7,65.1,71.9,66.8,63.1,97,78,61,30.04,29.99,14,4,14,0.00
2013-1-15,80.1,74.1,70.2,70.9,68.2,64.7,89,82,74,30.01,29.94,15,4,15,0.00
2013-1-17,63.3,61.6,61.0,59.0,57.3,55.2,88,86,82,29.96,29.94,12,5,12,0.12
2013-1-18,75.0,63.5,51.3,60.4,54.1,46.9,88,73,57,30.10,29.95,18,7,18,0.00
2013-1-19,76.5,69.7,66.0,71.0,65.4,58.6,99,87,69,30.09,29.97,11,3,11,0.12
2013-1-20,83.3,71.0,62.6,73.5,67.2,62.3,99,89,66,30.01,29.88,11,3,11,0.00
2013-1-21,83.3,71.3,64.9,75.1,68.8,64.7,99,93,68,29.94,29.82,11,2,11,0.91
2013-1-22,75.9,68.0,61.2,64.7,59.8,52.9,99,77,60,30.09,29.86,23,7,23,0.00
2013-1-23,77.2,66.3,60.1,62.0,56.8,53.3,87,73,51,30.17,30.07,15,5,15,0.00
2013-1-24,78.6,65.2,54.9,56.6,52.8,43.1,94,68,41,30.17,30.07,15,4,15,0.00
2013-1-25,79.3,65.0,54.3,61.5,56.6,52.0,99,77,54,30.16,30.05,13,3,13,0.00
2013-1-26,81.0,66.5,56.8,60.7,57.7,51.6,99,77,46,30.14,30.03,15,3,15,0.00
2013-1-27,59.5,58.5,57.6,59.3,58.3,57.3,99,99,99,30.10,30.07,3,1,3,0.00
2013-1-28,82.6,76.6,72.7,70.1,67.2,64.8,90,74,61,30.20,30.10,17,7,17,0.00
2013-1-29,81.1,74.5,71.2,73.3,70.8,69.0,98,89,71,30.11,29.99,16,5,16,0.02
2013-1-30,83.5,77.0,70.9,69.5,67.7,65.5,95,75,61,29.97,29.83,21,7,21,0.00
2013-1-31,71.2,65.0,54.7,70.9,58.8,41.0,99,82,54,30.06,29.81,21,4,21,0.06
2013-2-1,73.4,60.8,50.2,57.6,48.9,38.6,83,66,56,30.15,30.04,22,7,22,0.00
2013-2-2,77.7,62.3,52.7,55.4,48.8,38.1,93,64,44,30.13,29.99,13,3,13,0.00
2013-2-3,56.1,54.0,52.5,55.1,52.8,51.3,99,96,89,29.99,29.94,8,1,8,0.00
2013-2-4,80.1,71.7,47.5,53.4,45.6,37.6,87,45,28,30.01,29.89,16,5,16,0.00
2013-2-5,79.0,72.5,51.8,71.1,62.4,51.5,99,74,50,29.95,29.92,6,2,6,0.00
2013-2-6,84.6,75.2,64.2,73.4,64.9,59.6,99,72,57,29.98,29.91,14,5,14,0.00
2013-2-7,83.5,73.8,63.5,69.7,65.9,61.3,95,78,56,29.95,29.80,14,4,14,0.00
2013-2-8,87.1,73.7,64.6,72.0,67.1,59.7,99,83,43,29.91,29.77,15,4,15,0.00
2013-2-9,80.6,71.0,62.2,69.3,63.8,60.0,99,80,59,30.04,29.89,17,6,17,0.00
2013-2-10,77.2,72.3,69.3,65.0,62.6,59.8,86,72,63,30.14,30.02,21,8,21,0.00
2013-2-11,81.5,73.8,66.6,67.0,64.3,60.6,87,74,59,30.09,29.97,15,5,15,0.00
2013-2-12,89.1,74.2,61.5,74.5,67.1,61.1,99,81,47,29.99,29.83,15,4,15,0.00
2013-2-13,90.7,77.1,66.6,73.3,68.8,66.1,99,79,53,29.87,29.74,21,5,21,0.00
2013-2-14,78.8,68.2,62.6,74.6,67.4,62.0,99,97,83,29.89,29.74,23,5,23,1.49
2013-2-15,75.6,66.5,63.0,72.5,65.8,62.5,99,98,85,29.90,29.80,13,3,13,0.14
2013-2-16,75.9,64.9,53.2,65.0,56.7,42.7,99,78,47,29.95,29.74,21,6,21,0.00
2013-2-17,60.3,51.1,43.3,42.8,29.2,15.9,70,48,24,30.18,29.95,26,8,26,0.00
2013-2-18,71.1,59.2,45.3,55.9,44.6,30.6,70,60,48,30.20,30.08,21,7,21,0.00
2013-2-19,84.6,71.5,55.8,66.5,59.5,52.3,94,68,55,30.08,29.96,16,5,16,0.00
2013-2-20,81.3,73.0,63.9,68.6,65.4,62.8,99,79,59,29.99,29.88,12,4,12,0.01
2013-2-21,83.8,72.2,61.0,77.6,66.5,60.7,99,84,60,29.97,29.87,13,4,13,0.00
2013-2-22,86.0,76.9,70.0,73.7,70.7,67.1,95,82,67,29.97,29.88,18,6,18,0.00
2013-2-23,87.6,78.7,71.8,74.1,71.5,69.2,94,80,60,29.91,29.77,15,6,15,0.00
2013-2-24,93.4,81.5,70.7,76.2,71.4,65.4,99,74,45,29.87,29.75,17,5,17,0.00
2013-2-25,88.3,76.0,67.1,77.4,72.3,66.8,99,90,64,29.79,29.68,17,4,17,0.60
2013-2-26,90.5,79.7,73.2,77.2,72.6,68.7,99,81,54,29.75,29.65,23,7,23,0.00
2013-2-27,76.5,69.7,62.8,75.0,65.6,61.2,99,88,65,29.83,29.72,14,4,14,0.28
2013-2-28,76.6,64.4,58.1,64.5,54.9,48.8,99,74,42,29.87,29.76,14,3,14,0.00
2013-3-1,66.9,61.3,57.0,57.2,50.9,46.1,87,70,56,29.86,29.76,13,3,13,0.00
2013-3-2,69.1,57.5,48.6,48.6,41.8,35.8,83,58,40,29.90,29.82,25,6,25,0.00
2013-3-3,51.6,49.6,46.2,42.7,37.9,35.9,82,65,58,29.90,29.83,13,5,13,0.00
2013-3-4,50.5,50.5,50.5,36.4,36.4,36.4,59,59,59,29.90,29.90,6,6,11,0.00
2013-3-5,50.5,50.5,50.5,36.4,36.4,36.4,59,59,59,29.90,29.90,6,6,11,0.00
2013-3-6,79.2,62.3,50.5,65.6,44.5,27.4,95,56,27,29.97,29.81,20,8,20,0.00
2013-3-7,72.5,58.4,46.6,56.1,46.3,35.8,97,67,41,30.05,29.94,14,5,19,0.00
2013-3-8,76.8,61.7,50.2,54.8,50.7,39.4,99,73,31,30.08,29.97,14,4,14,0.00
2013-3-9,77.0,65.0,51.4,58.3,54.1,50.1,99,71,51,30.06,29.96,17,5,17,0.00
2013-3-10,77.2,70.9,65.8,60.8,56.7,52.7,75,62,51,30.04,29.94,16,7,18,0.00
2013-3-11,81.7,72.3,67.8,63.6,60.6,57.6,79,68,51,29.99,29.82,19,7,19,0.00
2013-3-12,83.7,74.7,68.0,71.1,66.3,62.1,89,76,65,29.86,29.77,17,6,17,0.00
2013-3-13,70.3,62.6,55.8,67.1,60.3,55.2,99,92,87,29.92,29.84,14,4,14,0.00
2013-3-14,70.3,63.1,53.1,51.0,46.4,39.8,84,58,36,30.08,30.01,22,8,22,0.00
2013-3-15,73.2,61.5,50.2,54.1,50.1,45.2,89,69,43,30.12,30.02,15,5,15,0.00
2013-3-16,78.6,64.5,50.2,67.0,53.6,49.7,99,72,41,30.07,29.95,15,3,15,0.00
2013-3-17,79.7,67.6,54.7,62.1,58.5,52.1,99,75,53,30.02,29.90,16,4,16,0.00
2013-3-18,84.6,73.1,64.6,71.1,66.2,60.8,99,80,61,29.95,29.82,18,5,18,0.71
2013-3-22,77.7,66.0,52.2,67.9,59.5,51.9,99,83,56,29.87,29.81,8,2,8,0.00
2013-3-23,93.0,83.1,73.6,76.8,73.4,70.3,99,74,53,29.83,29.65,16,5,16,0.00
2013-3-24,91.4,79.4,70.9,76.9,72.3,65.4,99,82,53,29.76,29.53,32,9,32,0.38
2013-3-25,83.8,73.6,61.2,73.5,58.5,36.8,99,66,26,29.86,29.60,15,4,15,0.01
2013-3-26,70.9,60.4,50.7,43.0,36.1,24.0,65,44,24,30.09,29.85,21,8,21,0.00
2013-3-27,70.3,56.0,45.1,47.1,40.6,31.9,84,59,34,30.12,30.04,16,6,16,0.00
2013-3-28,72.7,59.4,47.1,52.1,45.6,38.6,89,64,34,30.14,30.04,17,4,17,0.00
2013-3-29,76.8,63.9,50.7,53.7,49.9,43.8,86,64,42,30.16,30.07,19,4,19,0.00
2013-3-30,78.3,66.6,52.3,63.0,53.0,47.0,99,66,39,30.14,30.03,16,3,16,0.00
2013-3-31,67.5,63.0,56.8,56.3,55.4,54.1,97,77,67,30.06,29.99,9,2,9,0.00
2013-4-2,85.8,80.3,65.7,71.8,64.6,62.3,99,62,49,29.94,29.90,15,9,15,0.00
2013-4-3,82.8,82.8,82.8,63.6,63.6,63.6,54,54,54,29.91,29.91,11,11,12,0.00
2013-4-4,82.8,82.8,82.8,63.6,63.6,63.6,54,54,54,29.91,29.91,11,11,12,0.00
2013-4-9,83.5,79.1,74.1,70.5,68.0,66.2,79,70,63,30.03,29.96,17,9,17,0.01
2013-4-10,85.3,81.1,73.0,73.9,72.1,69.2,88,75,67,29.96,29.87,17,8,17,0.00
2013-4-12,90.5,82.4,72.9,79.8,75.7,71.5,99,82,65,29.81,29.71,21,6,21,0.39
2013-4-13,89.6,78.1,71.8,79.8,73.9,68.3,99,88,54,29.84,29.74,19,3,19,0.05
2013-4-14,90.1,80.0,70.9,79.3,74.5,70.0,99,85,63,29.84,29.76,17,5,17,0.00
2013-4-15,97.9,78.5,70.2,77.8,73.2,68.6,99,86,51,29.92,29.79,27,4,27,0.97
2013-4-16,87.6,77.6,69.3,80.1,73.1,69.0,99,87,70,30.00,29.89,17,6,17,0.01
2013-4-17,86.2,78.5,70.3,72.1,68.8,63.0,95,74,51,29.99,29.89,15,6,15,0.00
2013-4-19,91.4,84.5,77.2,75.6,73.2,69.4,90,70,54,29.92,29.82,20,8,20,0.01
2013-4-20,93.4,78.4,72.0,79.8,74.0,70.6,99,88,57,29.96,29.84,22,5,22,0.05
2013-4-21,88.5,78.3,71.2,76.7,72.6,68.7,99,84,62,29.97,29.85,16,5,16,0.00
2013-4-22,87.4,75.5,69.3,73.3,70.9,68.5,99,87,59,29.91,29.81,17,4,17,0.11
2013-4-23,83.7,75.8,66.9,69.9,66.3,60.8,99,75,56,29.96,29.82,22,8,22,0.00
2013-4-24,86.4,78.2,70.3,66.7,63.6,60.0,78,63,50,30.01,29.90,17,5,17,0.00
2013-4-25,84.9,77.4,69.6,65.6,62.5,59.9,79,62,48,30.08,29.94,17,5,17,0.00
2013-4-26,84.0,76.4,64.0,69.5,64.8,61.0,94,69,54,30.09,29.99,17,6,17,0.00
2013-4-27,83.3,78.2,72.7,67.4,64.7,62.0,74,65,54,30.09,29.96,23,8,23,0.00
2013-4-28,84.4,82.1,79.5,66.2,63.8,59.9,64,55,48,29.98,29.89,18,10,18,0.00
2013-4-29,87.6,81.1,77.2,72.1,69.5,66.2,84,70,52,29.90,29.80,17,7,17,0.00
2013-4-30,88.5,74.7,69.6,79.1,72.0,69.3,99,92,64,29.86,29.78,14,2,14,0.86
2013-5-1,87.3,74.1,68.2,76.5,71.3,67.9,99,92,65,29.87,29.78,18,3,18,0.30
2013-5-2,79.3,72.7,68.4,78.5,71.9,68.1,99,98,88,29.83,29.67,21,6,21,1.43
2013-5-3,91.4,78.1,69.1,74.7,71.0,67.4,99,82,49,29.69,29.54,16,6,16,0.04
2013-5-6,87.6,78.5,60.4,68.1,63.9,60.2,99,63,45,29.87,29.78,15,4,15,0.00
2013-5-7,68.4,64.4,60.1,64.4,59.2,56.4,89,84,79,29.89,29.83,8,2,8,0.00
2013-5-9,91.2,83.4,71.6,74.0,70.9,66.1,88,68,48,30.00,29.93,11,4,11,0.00
2013-5-10,92.3,81.1,71.4,81.4,73.3,69.2,99,79,50,30.00,29.88,18,4,18,0.00
2013-5-11,92.5,81.0,71.2,81.7,74.3,70.1,99,82,58,29.95,29.83,21,4,21,0.53
2013-5-12,94.6,79.7,70.5,81.4,73.7,70.2,99,85,51,29.93,29.80,27,4,27,0.11
2013-5-13,90.9,78.7,70.5,76.3,69.5,64.4,99,77,47,29.96,29.85,15,4,15,0.01
2013-5-14,82.6,76.4,70.7,66.2,60.2,55.4,79,59,44,30.05,29.93,20,6,20,0.00
2013-5-15,83.5,77.2,66.9,65.7,60.9,55.0,79,59,48,30.07,29.96,18,6,18,0.00
2013-5-16,85.8,80.6,74.5,67.1,64.1,60.6,75,59,49,29.99,29.91,16,6,16,0.00
2013-5-17,84.0,75.9,67.6,78.3,70.7,62.8,99,85,67,29.96,29.88,22,5,22,1.42
2013-5-18,89.1,79.4,70.5,81.9,73.0,70.2,99,82,63,29.98,29.90,14,4,14,0.00
2013-5-19,89.8,80.7,70.3,78.1,71.0,67.9,99,74,55,29.97,29.87,15,4,15,0.00
2013-5-20,81.9,76.3,70.7,74.8,72.7,70.0,99,89,78,29.96,29.86,18,3,18,2.02
2013-5-21,87.6,79.9,70.2,76.7,72.8,69.9,99,80,61,29.91,29.80,18,6,18,0.26
2013-5-22,91.6,79.5,73.0,76.8,73.4,70.6,99,83,60,29.84,29.76,16,3,16,0.01
2013-5-23,95.2,82.2,73.8,78.3,74.3,67.9,99,80,46,29.87,29.76,14,4,14,0.00
2013-5-24,91.8,83.2,72.1,80.1,72.3,60.1,99,73,40,29.93,29.81,17,4,17,0.00
2013-5-25,86.2,80.5,75.7,75.0,68.5,64.5,93,69,54,30.04,29.91,21,8,21,0.00
2013-5-26,86.2,78.6,67.6,69.1,65.1,60.6,92,65,52,30.05,29.97,18,7,18,0.00
2013-5-27,86.4,79.9,74.3,72.5,69.1,62.3,81,71,61,30.03,29.94,19,8,19,0.00
2013-5-28,84.7,78.8,73.0,77.0,73.6,71.3,99,85,69,29.99,29.91,23,8,23,0.18
2013-5-29,81.5,76.5,70.5,77.9,73.7,70.2,99,92,76,29.97,29.88,21,7,21,2.73
2013-5-30,83.7,78.5,73.4,77.3,73.1,69.4,99,84,66,29.95,29.87,26,10,26,0.24
2013-5-31,85.3,81.7,76.1,75.9,74.7,71.2,94,80,74,29.94,29.88,22,10,22,0.01
2013-6-1,84.4,84.4,84.4,75.8,75.8,75.8,76,76,76,29.93,29.93,11,11,15,0.01
2013-6-2,84.4,82.3,75.0,77.5,75.8,74.5,99,82,76,29.93,29.78,15,8,15,0.65
2013-6-3,94.1,79.2,72.3,81.7,75.2,72.0,99,89,56,29.90,29.77,17,2,17,0.81
2013-6-4,88.7,79.1,73.8,81.0,76.2,73.5,99,92,67,29.92,29.81,8,2,8,0.13
2013-6-5,85.3,81.4,78.6,80.4,77.5,75.2,94,88,79,29.88,29.76,13,4,13,0.04
2013-6-6,91.6,80.4,73.4,82.7,78.0,73.1,99,93,69,29.78,29.62,36,7,36,1.91
2013-6-7,94.5,80.2,73.0,80.4,75.9,72.7,99,88,61,29.85,29.75,17,5,17,0.83
2013-6-8,88.7,78.5,73.6,83.1,76.7,73.3,99,95,73,29.99,29.83,10,2,10,1.05
2013-6-9,91.0,82.6,74.8,79.9,76.3,73.6,99,83,62,30.00,29.90,17,5,17,0.51
2013-6-10,91.8,84.4,79.5,79.3,76.7,74.4,91,79,64,29.96,29.88,13,5,13,0.00
2013-6-11,95.0,84.7,78.4,81.4,77.4,74.4,98,80,58,29.96,29.87,13,4,17,0.00
2013-6-12,93.2,81.9,75.6,83.9,76.8,73.4,99,86,62,29.94,29.88,15,2,15,0.00
2013-6-13,93.9,80.0,74.7,84.2,76.5,74.4,99,90,59,29.91,29.86,11,2,11,0.00
2013-6-18,94.8,88.8,79.9,81.6,76.2,73.9,99,68,56,29.94,29.84,14,6,14,0.00
2013-6-19,81.9,79.4,77.7,78.0,77.0,75.9,99,93,83,29.91,29.86,8,1,8,0.00
2013-6-21,94.6,88.4,80.1,84.1,74.4,71.9,99,65,52,29.98,29.92,15,6,15,0.00
2013-6-22,92.8,84.5,75.9,80.5,74.2,70.9,95,73,56,29.97,29.90,16,5,16,0.00
2013-6-23,92.7,84.4,78.8,79.3,74.6,71.6,88,74,60,30.00,29.91,17,6,17,0.06
2013-6-24,90.9,85.0,80.2,77.4,74.1,71.6,81,71,57,30.04,29.95,21,6,21,0.01
2013-6-25,91.2,84.4,80.1,77.7,75.4,72.5,86,75,62,30.01,29.91,16,6,16,0.00
2013-6-26,93.6,84.6,75.7,83.9,75.8,71.8,99,77,54,29.95,29.87,15,4,15,0.15
2013-6-27,92.3,82.4,75.4,81.3,75.5,70.2,99,81,63,29.94,29.82,13,2,13,0.00
2013-6-28,97.0,83.7,75.4,86.9,76.5,71.5,99,82,48,29.86,29.75,15,2,15,0.20
2013-6-30,97.7,80.0,71.6,82.3,75.9,71.3,99,90,51,29.82,29.73,23,4,23,0.86
2013-7-1,93.7,82.7,74.8,82.6,76.8,72.0,99,84,58,29.88,29.78,21,5,21,0.00
2013-7-2,92.3,84.4,75.4,80.6,76.6,72.2,93,78,67,29.98,29.88,17,5,17,0.01
2013-7-3,92.7,82.4,74.8,81.6,76.9,73.0,99,84,64,30.00,29.91,21,5,21,0.13
2013-7-4,90.9,84.5,79.9,80.5,76.9,75.2,90,79,65,30.02,29.94,19,7,19,0.01
2013-7-5,89.1,83.0,73.9,79.7,76.3,72.9,99,81,65,30.01,29.92,21,7,21,0.18
2013-7-6,91.2,84.3,80.2,77.1,75.2,72.5,83,75,63,29.99,29.90,19,7,19,0.00
2013-7-7,90.0,84.5,80.1,78.0,75.4,72.6,86,75,61,29.97,29.89,21,7,21,0.00
2013-7-8,91.8,84.3,77.7,77.9,74.3,70.1,89,74,55,30.02,29.94,16,5,16,0.01
2013-7-9,89.8,80.7,74.1,79.4,74.4,69.8,99,83,57,30.02,29.91,18,3,18,0.27
2013-7-10,91.4,80.1,71.6,79.3,74.7,71.3,99,86,60,29.96,29.86,13,3,13,0.09
2013-7-11,95.0,85.6,75.9,80.1,75.2,70.1,97,73,54,29.88,29.81,15,4,15,0.00
2013-7-12,94.6,79.9,74.7,86.8,76.6,74.4,99,91,57,29.83,29.78,10,1,10,0.00
2013-7-13,91.4,77.6,72.9,80.5,75.6,72.4,99,94,67,29.89,29.82,13,3,13,0.66
2013-7-14,94.5,78.6,72.3,81.2,74.4,71.7,99,89,57,29.97,29.85,17,3,17,0.09
2013-7-15,90.5,79.3,72.9,82.1,74.8,70.9,99,87,63,29.97,29.88,15,3,15,0.37
2013-7-16,86.9,79.1,73.4,77.8,74.7,71.5,99,87,67,30.04,29.92,23,6,23,0.22
2013-7-17,84.6,79.6,73.8,78.2,74.7,70.5,98,85,76,30.01,29.91,15,4,15,0.07
2013-7-18,91.4,77.9,72.5,81.6,74.5,71.5,99,91,61,30.00,29.92,21,3,21,0.40
2013-7-19,92.3,81.6,73.2,83.2,76.4,72.9,99,86,65,30.00,29.91,14,4,14,0.00
2013-7-20,96.8,83.9,77.5,81.9,77.9,73.2,96,83,58,29.99,29.90,17,4,17,0.00
2013-7-21,94.1,81.8,74.5,81.2,76.8,71.0,99,87,61,30.03,29.91,17,3,17,0.02
2013-7-22,97.5,84.9,73.8,83.2,75.9,72.4,99,78,49,30.01,29.93,14,3,14,0.00
2013-7-23,99.3,85.6,76.6,81.1,76.3,70.2,99,77,43,29.97,29.83,13,4,13,0.00
2013-7-24,97.9,85.7,75.7,79.5,74.2,63.3,99,72,38,29.88,29.77,20,5,20,0.00
2013-7-25,97.9,85.8,76.3,78.1,75.4,72.0,95,74,49,29.87,29.78,19,5,19,0.00
2013-7-26,97.7,84.6,78.8,78.7,76.0,71.4,91,78,46,29.89,29.80,18,5,18,0.00
2013-7-27,98.2,80.4,74.3,82.1,76.6,71.9,99,90,53,29.88,29.79,12,2,12,0.80
2013-7-28,93.4,79.9,73.2,82.3,76.7,72.6,99,91,65,29.95,29.81,13,2,13,1.02
2013-7-29,94.5,82.2,74.1,82.2,76.4,73.8,99,85,59,30.01,29.88,15,3,15,0.00
2013-7-30,93.0,85.0,77.2,82.7,77.6,73.3,92,80,62,30.04,29.94,15,4,15,0.13
2013-7-31,93.6,85.6,77.7,80.4,76.5,73.6,97,76,57,29.99,29.88,17,5,17,0.00
2013-8-1,92.1,84.9,77.0,76.9,74.5,72.5,91,73,57,29.93,29.81,18,5,18,0.01
2013-8-2,94.5,80.5,72.3,81.5,74.8,67.8,99,85,52,29.92,29.78,22,2,22,0.28
2013-8-3,88.3,78.1,74.7,81.9,76.0,72.5,99,93,74,29.99,29.89,16,2,16,0.13
2013-8-4,101.0,81.3,73.4,83.3,75.9,73.1,99,87,47,29.97,29.84,27,2,27,0.57
2013-8-5,95.4,81.9,75.2,86.0,76.7,72.2,99,86,58,29.90,29.80,15,3,15,0.00
2013-8-6,97.9,84.2,74.7,82.2,76.7,74.2,99,81,55,29.84,29.76,11,2,11,0.00
2013-8-7,95.7,85.0,76.5,85.9,76.5,72.5,99,78,52,29.86,29.76,15,4,15,0.00
2013-8-8,93.9,86.0,79.0,78.9,76.3,73.1,94,74,57,29.89,29.80,21,6,21,0.04
2013-8-9,93.4,85.2,80.8,78.4,74.5,71.0,87,72,57,29.94,29.82,17,5,17,0.01
2013-8-10,84.6,80.8,79.2,77.0,75.9,74.1,90,86,80,29.93,29.90,9,2,9,0.00
2013-8-12,92.5,87.6,82.0,78.2,75.1,71.4,82,68,57,29.96,29.88,15,6,15,0.00
2013-8-13,95.2,86.2,76.6,85.0,76.0,72.6,99,74,54,29.92,29.82,15,4,15,0.00
2013-8-14,97.2,85.7,75.4,85.0,75.5,70.6,99,75,51,29.90,29.80,14,3,14,0.00
2013-8-15,95.7,87.4,79.9,78.7,76.2,73.6,89,71,53,29.93,29.82,11,4,11,0.00
2013-8-16,95.0,85.1,76.3,83.1,77.4,73.1,97,79,57,29.92,29.84,21,4,21,0.05
2013-8-17,95.2,87.0,82.0,80.8,78.0,73.8,89,76,57,29.95,29.86,15,5,15,0.00
2013-8-18,92.8,85.7,80.2,79.0,77.1,73.4,90,77,60,29.95,29.86,20,6,20,0.00
2013-8-19,94.3,86.2,78.8,79.5,77.0,73.8,90,76,59,29.94,29.83,17,5,17,0.00
2013-8-20,93.4,84.7,77.7,79.1,76.7,73.4,99,79,58,29.94,29.85,19,5,19,0.17
2013-8-21,90.3,83.3,76.8,80.3,78.4,73.1,99,86,69,29.95,29.86,19,6,19,0.35
2013-8-22,92.8,85.2,77.2,80.6,77.7,74.3,97,79,64,29.94,29.83,16,5,16,0.00
2013-8-23,93.6,84.3,76.6,83.2,76.9,73.6,99,80,59,29.89,29.80,17,3,17,0.00
2013-8-24,94.5,83.9,76.6,83.2,76.5,72.5,99,81,56,29.95,29.84,15,3,15,0.25
2013-8-26,93.6,83.5,74.5,78.3,74.8,71.9,99,77,56,29.96,29.88,16,4,16,0.00
2013-8-27,88.9,79.1,73.4,79.4,74.0,70.1,99,86,62,29.93,29.83,13,2,13,0.32
2013-8-28,90.0,81.0,73.8,79.9,74.9,72.0,99,83,62,29.91,29.82,16,3,16,0.57
2013-8-29,93.7,83.3,73.2,80.5,75.0,71.6,99,79,56,29.90,29.79,14,4,15,0.00
2013-8-30,97.0,86.1,75.6,82.8,75.4,69.4,99,74,46,29.87,29.76,15,3,15,0.00
2013-8-31,95.9,83.2,76.1,79.3,74.4,71.0,95,77,47,29.85,29.77,10,2,10,0.00
2013-9-1,80.1,77.4,76.5,76.7,75.7,74.5,99,95,86,29.87,29.82,2,0,2,0.00
2013-9-2,98.1,79.6,73.4,83.5,75.7,71.4,99,90,48,29.90,29.80,25,2,25,0.41
2013-9-3,96.8,82.7,72.3,85.9,74.5,70.2,99,80,48,29.89,29.80,11,2,11,0.00
2013-9-4,91.8,83.3,77.4,85.9,78.0,75.3,99,85,62,29.94,29.82,15,2,15,0.07
2013-9-5,94.8,85.5,78.8,79.6,77.8,73.5,99,79,58,29.94,29.86,13,4,13,0.01
2013-9-6,95.4,85.8,77.9,84.2,77.5,74.2,99,79,55,29.91,29.79,17,4,17,0.01
2013-9-7,93.2,78.8,72.9,82.9,75.4,72.6,99,91,59,29.85,29.76,14,2,14,2.65
2013-9-8,93.2,80.7,73.0,82.6,74.7,71.7,99,84,52,29.82,29.72,12,2,12,0.00
2013-9-9,91.6,81.6,73.8,80.9,75.1,72.7,99,83,59,29.88,29.76,20,4,20,0.31
2013-9-10,90.9,81.3,74.8,79.8,75.3,70.5,99,83,66,29.92,29.82,22,5,22,0.40
2013-9-11,82.0,80.3,78.4,76.1,75.0,73.9,89,84,81,29.90,29.84,10,3,10,0.05
2013-9-12,87.3,80.9,75.9,79.3,77.0,75.3,99,89,73,29.87,29.76,9,2,9,0.07
2013-9-13,93.9,82.5,73.0,83.5,75.9,72.7,99,83,56,29.78,29.67,11,3,11,0.13
2013-9-14,97.0,84.6,75.0,82.0,75.3,71.7,99,77,50,29.84,29.68,12,3,12,0.00
2013-9-15,91.0,81.8,74.7,80.5,77.0,73.3,99,86,72,29.94,29.77,19,3,19,0.51
2013-9-16,90.7,80.0,74.7,80.7,77.7,72.9,99,93,71,29.92,29.83,33,6,33,0.64
2013-9-17,80.6,78.1,73.6,78.9,76.4,73.1,99,95,86,29.92,29.79,15,4,15,0.53
2013-9-18,91.4,79.9,73.8,80.5,75.4,72.4,99,87,65,29.88,29.78,17,3,17,0.58
2013-9-19,88.9,80.0,73.6,81.5,75.0,70.9,99,86,67,29.87,29.79,22,5,22,0.07
2013-9-20,89.1,81.4,71.4,75.2,70.6,67.0,98,72,53,29.87,29.76,19,5,19,0.00
2013-9-21,93.7,82.0,71.2,78.0,71.7,69.0,99,73,48,29.79,29.64,13,3,13,0.00
2013-9-22,97.7,83.9,73.6,81.1,75.2,71.5,99,78,47,29.73,29.62,14,3,14,0.00
2013-9-23,94.8,81.7,76.3,85.6,77.5,74.7,99,88,63,29.85,29.71,12,2,12,0.57
2013-9-24,77.9,75.8,74.8,77.6,75.5,74.5,99,99,99,29.84,29.78,12,2,12,0.38
2013-9-25,92.7,84.1,73.8,80.7,75.1,71.2,99,77,53,29.76,29.64,21,5,21,0.01
2013-9-26,94.3,81.1,75.0,82.1,78.1,74.2,99,91,64,29.72,29.64,29,5,29,0.22
2013-9-27,89.6,81.0,73.0,80.7,73.9,68.2,99,81,53,29.78,29.67,13,4,13,0.00
2013-9-28,88.9,80.3,72.9,81.0,73.8,70.1,99,83,60,29.83,29.73,24,5,24,0.32
2013-9-29,90.9,80.6,69.8,80.5,71.1,68.9,99,75,54,29.83,29.74,12,3,12,0.00
2013-9-30,90.1,74.7,70.9,80.2,72.1,70.5,99,93,56,29.83,29.77,5,0,5,0.00
2013-10-3,90.3,84.1,75.6,74.4,71.8,69.0,90,68,57,29.93,29.85,14,5,14,0.00
2013-10-4,90.5,80.8,73.4,78.6,71.7,68.0,99,76,51,29.93,29.85,13,3,13,0.00
2013-10-5,91.2,80.2,70.5,79.6,72.1,69.1,99,79,54,29.90,29.80,14,4,14,0.00
2013-10-6,91.0,82.0,73.8,80.4,74.4,71.9,99,79,60,29.83,29.73,12,3,12,0.07
2013-10-7,95.2,78.9,72.0,78.7,73.4,71.0,99,86,51,29.76,29.66,17,3,17,0.98
2013-10-8,94.1,81.7,74.5,80.9,74.3,70.1,99,81,53,29.79,29.70,15,4,15,0.01
2013-10-9,86.4,77.6,70.2,77.7,74.3,69.3,99,90,74,29.84,29.75,17,5,17,0.00
2013-10-10,88.3,83.3,70.9,76.4,73.1,70.0,99,73,56,29.88,29.81,19,7,19,0.00
2013-10-11,87.8,80.5,68.0,76.4,68.1,64.2,99,67,52,29.88,29.80,15,4,15,0.00
2013-10-12,71.1,69.5,68.2,67.0,66.5,66.0,96,90,84,29.83,29.81,0,0,0,0.00
2013-10-13,87.4,77.3,69.4,72.8,67.3,62.9,99,74,46,29.91,29.82,12,3,12,0.00
2013-10-14,89.2,77.9,68.7,73.6,69.1,66.1,99,77,50,29.86,29.76,14,3,14,0.00
2013-10-15,88.2,80.6,69.6,75.4,70.5,68.6,99,73,54,29.81,29.73,13,4,13,0.00
2013-10-16,77.7,74.2,70.3,70.4,68.8,67.9,92,83,76,29.79,29.75,4,1,4,0.00
2013-10-17,90.5,83.2,70.0,77.3,72.2,69.4,99,71,55,29.83,29.75,11,4,11,0.00
2013-10-18,91.8,80.8,70.9,81.3,73.0,69.9,99,79,57,29.84,29.75,13,3,13,0.00
2013-10-19,92.8,83.7,74.7,80.5,73.4,70.1,97,72,50,29.82,29.73,13,4,13,0.00
2013-10-20,96.1,82.7,74.3,79.8,75.2,72.5,99,79,49,29.82,29.73,10,3,10,0.00
2013-10-21,95.2,82.8,73.8,85.1,75.7,73.4,99,80,57,29.86,29.76,11,3,11,0.00
2013-10-22,98.1,84.5,75.2,80.1,76.3,71.9,99,78,47,29.81,29.68,14,3,14,0.00
2013-10-23,91.6,80.1,72.9,77.1,73.0,67.4,97,80,57,29.81,29.67,15,4,15,0.00
2013-10-24,83.3,75.8,70.2,69.4,64.6,60.8,88,69,55,29.95,29.80,17,5,17,0.00
2013-10-25,84.4,75.7,66.6,67.3,63.5,60.1,89,67,51,30.01,29.93,19,5,19,0.00
2013-10-26,85.5,73.9,63.7,68.5,62.7,59.0,96,70,47,30.01,29.91,14,3,14,0.00
2013-10-27,80.6,67.1,62.1,67.4,61.9,59.3,94,84,64,29.95,29.88,12,2,12,0.00
2013-10-28,87.1,78.2,63.1,71.9,65.6,62.9,99,67,47,30.00,29.91,14,4,14,0.00
2013-10-29,87.1,77.2,64.9,74.2,66.5,63.2,99,71,53,30.03,29.94,21,6,21,0.01
2013-10-30,86.2,80.0,75.6,69.2,66.5,64.6,72,64,53,30.06,29.94,19,8,19,0.00
2013-10-31,88.2,80.7,76.6,73.4,69.6,64.3,85,69,55,29.98,29.86,19,6,19,0.00
2013-11-1,91.2,81.7,71.4,78.1,72.9,70.0,98,76,55,29.87,29.74,14,4,14,0.00
2013-11-2,94.1,79.8,70.0,77.1,70.1,62.1,99,75,42,29.79,29.66,15,4,15,0.00
2013-11-3,82.0,74.6,67.5,66.0,62.2,59.1,85,67,50,29.88,29.74,25,8,25,0.00
2013-11-4,76.8,75.0,70.0,59.8,58.2,55.5,60,56,53,29.89,29.87,19,8,19,0.00
2013-11-5,84.9,79.9,76.6,70.5,68.9,62.5,78,69,60,29.95,29.88,24,13,24,0.00
2013-11-6,86.5,79.2,69.6,69.9,67.9,65.0,90,69,54,29.93,29.86,22,7,22,0.00
2013-11-7,86.9,75.9,68.7,77.0,70.4,66.4,99,84,59,29.87,29.78,13,3,13,0.00
2013-11-8,85.1,75.6,70.0,75.0,71.7,68.4,99,88,62,29.90,29.79,22,7,22,0.12
2013-11-9,80.1,77.3,74.7,72.8,71.4,70.0,92,82,76,30.00,29.88,27,11,27,0.05
2013-11-10,85.8,79.6,76.8,73.5,70.2,67.2,80,73,60,30.00,29.91,16,6,16,0.00
2013-11-11,81.5,72.9,68.7,73.3,67.7,65.8,97,84,72,29.98,29.91,16,2,16,0.00
2013-11-12,86.0,77.0,68.2,71.1,67.5,65.0,99,74,52,29.94,29.83,9,3,9,0.00
2013-11-13,75.6,72.0,69.1,68.4,62.0,51.7,95,71,54,30.08,29.85,19,11,19,0.06
2013-11-14,75.9,72.6,68.9,58.8,56.5,52.6,61,57,51,30.11,30.00,19,12,19,0.00
2013-11-15,81.0,76.6,73.2,67.2,64.4,58.8,71,66,60,30.01,29.90,16,9,16,0.00
2013-11-16,83.3,76.2,72.1,73.1,71.1,67.2,97,84,64,29.95,29.88,13,4,13,0.17
2013-11-17,86.9,79.7,73.0,73.8,71.6,68.5,93,77,60,29.94,29.86,16,5,16,0.00
2013-11-18,91.4,77.3,70.2,78.9,72.5,69.9,99,86,56,29.88,29.77,8,2,9,0.04
2013-11-19,90.9,77.9,71.4,76.7,72.1,70.4,99,83,53,29.80,29.71,14,3,14,0.05
2013-11-20,78.4,78.4,78.4,71.4,71.4,71.4,79,79,79,29.92,29.77,3,3,8,0.00
2013-11-21,78.4,12.6,0.0,71.4,71.4,71.4,79,13,79,30.01,29.90,3,0,8,0.00
2013-11-22,80.4,24.5,0.0,71.4,70.6,68.4,72,22,68,30.02,29.93,14,3,14,0.00
2013-11-23,78.4,78.4,78.4,68.7,68.7,68.7,72,72,72,29.93,29.93,8,8,11,0.00
2013-11-24,78.4,78.4,78.4,68.7,68.7,68.7,72,72,72,29.93,29.93,8,8,11,0.00
2013-11-25,78.4,75.4,71.1,68.7,66.6,60.9,83,74,64,30.05,29.89,24,11,24,0.08
2013-11-26,86.0,78.3,72.9,75.3,72.3,67.6,91,82,67,29.89,29.65,23,8,23,0.04
2013-11-27,78.8,71.3,55.8,75.9,64.7,49.5,99,81,52,29.96,29.61,20,7,20,0.54
2013-11-28,75.9,57.9,45.9,58.1,49.9,43.7,93,77,45,30.07,29.95,15,6,15,0.00
2013-11-29,79.3,70.3,57.0,63.8,58.2,54.6,96,67,47,30.11,30.03,19,7,19,0.00
2013-11-30,77.4,72.6,61.0,71.0,63.5,58.3,99,74,59,30.05,29.94,24,7,24,0.56
2013-12-1,74.7,67.9,61.0,73.3,66.8,59.1,99,97,73,29.95,29.77,11,2,11,0.71
2013-12-2,71.6,66.3,59.5,68.5,64.7,59.3,99,95,78,29.77,29.66,11,2,11,0.19
2013-12-3,84.0,70.2,58.6,69.9,62.9,58.4,99,81,48,29.84,29.73,10,2,10,0.00
2013-12-4,89.8,72.1,63.3,73.7,65.4,62.8,99,81,49,29.93,29.83,11,2,11,0.00
2013-12-5,83.7,72.3,63.1,78.9,68.5,62.9,99,88,64,30.01,29.92,14,2,14,0.12
2013-12-6,86.4,77.0,66.2,71.9,68.4,64.6,96,76,55,30.03,29.93,17,4,17,0.00
2013-12-7,84.7,71.7,64.4,75.5,69.2,64.1,99,93,66,30.06,29.99,11,2,11,0.07
2013-12-8,84.6,78.3,74.5,74.0,69.8,66.7,90,76,59,30.05,29.96,14,4,14,0.00
2013-12-9,86.9,77.7,67.6,70.3,67.2,62.3,95,71,47,30.03,29.94,16,4,16,0.00
2013-12-10,88.3,75.8,68.4,77.0,70.2,66.9,99,84,57,30.00,29.92,12,2,12,0.00
2013-12-11,68.9,68.0,66.9,68.6,67.7,66.7,99,99,98,29.98,29.96,2,0,2,0.00
2013-12-12,77.7,71.5,67.8,71.4,65.0,56.4,99,81,61,30.06,29.97,18,7,18,0.00
2013-12-13,74.1,73.3,73.0,63.2,62.9,62.3,72,71,68,29.97,29.96,17,10,17,0.00
2013-12-14,84.9,78.6,73.2,72.4,70.9,67.4,93,78,64,29.95,29.82,16,6,16,0.02
2013-12-15,82.9,74.9,70.2,76.3,72.1,66.3,99,91,76,29.91,29.76,15,4,15,0.06
2013-12-16,76.6,67.0,59.4,67.2,60.8,57.9,95,81,62,30.00,29.88,14,5,14,0.00
2013-12-17,79.2,66.2,57.4,64.8,58.3,55.3,99,79,50,30.03,29.94,17,4,17,0.00
2013-12-18,78.1,65.2,57.4,60.0,57.1,54.4,99,78,48,30.08,29.98,18,4,18,0.00
2013-12-19,79.5,68.2,53.4,67.0,58.5,53.1,99,74,51,30.09,30.00,17,4,17,0.00
2013-12-20,83.5,76.3,71.2,70.3,65.8,60.3,83,70,59,30.04,29.95,15,5,15,0.00
2013-12-21,84.9,78.6,75.2,72.8,70.7,68.1,85,77,64,29.99,29.92,19,6,19,0.00